Aérodrome :
LOGIN :

S'inscrire | Disclaimer

   EN    FR    IT 

 










Légende :    VFR   VFR Marginal   IFR   IFR Intensif   IFR Très Intensif
Visi : 
Plafond : 
>= 8 km
>= 3000ft
5 à 8 km
1000 à 3000 ft
1500m à 5 km
500 à 1000 ft
800 à 1500m
200 à 500 ft
< 800m
< 200 ft
Symboles :   Orages  Brouillard  Fortes neiges  Fortes précipitations  Vent > 20 kt
SIGMETs :   Divers  Orages  Givrage  Turbulence  Onde Orograph.  Cendres Volcan.






- Altitude de l'aérodrome : 161 ft
- Code IATA : TKU


EFTU - Turku

DERNIER METAR :
  • 230020Z AUTO 27017KT CAVOK 03/M02 Q0977

METARs EXPIRÉS :
  • 222350Z AUTO 27016KT CAVOK 03/M02 Q0976
  • 222320Z AUTO 27019G30KT CAVOK 04/M02 Q0976
  • 222250Z AUTO 27020KT 9999 FEW044 04/M02 Q0976
  • 222220Z AUTO 28018G32KT CAVOK 04/M01 Q0975
  • 222150Z AUTO 28018KT CAVOK 05/M00 Q0975

TAF TAF EFTU
Valide du 23 à 00h jusqu'au 24 à 00h UTC


222328Z 2300/2324 27019KT 9999 FEW045
TEMPO 2300/2304 27020G30KT
TEMPO 2306/2310 BKN013
BECMG 2312/2314 26009KT



MET'MAP, la Météo Aéronautique d'un coup d'oeil ! - Copyright ORBIFLY Décembre 2007 - Disclaimer

ORBIFLY MET'MAP TEAM :

Programmation & Développement : Alexandra Zaïnal
Sur une idée originale de : Baudouin d'Aumeries
Assistance à la programmation : Marc-Olivier Méhu
Soutien technique & logistique : Manuel Goepfert

Contact : metmap@orbifly.com




SOURCES & CREDITS :

   NOAA